Time,TemperatureF,DewpointF,PressureIn,WindDirection,WindDirectionDegrees,WindSpeedMPH,WindSpeedGustMPH,Humidity,HourlyPrecipIn,Conditions,Clouds,dailyrainin,SoftwareType,DateUTC
2013-04-10 00:00:00,64.3,53.9,29.83,SW,216,0.0,4.0,69,0.00,,CLR,0.00,VWS V14.01,2013-04-10 04:00:00,
2013-04-10 00:05:00,64.2,53.8,29.83,SW,216,0.0,0.0,69,0.00,,CLR,0.00,VWS V14.01,2013-04-10 04:05:00,
2013-04-10 00:10:00,64.1,53.7,29.83,SW,216,0.0,1.0,69,0.00,,CLR,0.00,VWS V14.01,2013-04-10 04:10:00,
2013-04-10 00:15:00,64.1,53.7,29.83,SW,216,0.0,1.0,69,0.00,,CLR,0.00,VWS V14.01,2013-04-10 04:15:00,
2013-04-10 00:20:00,64.1,53.7,29.83,SW,216,0.0,1.0,69,0.00,,CLR,0.00,VWS V14.01,2013-04-10 04:20:00,
2013-04-10 00:25:00,64.1,53.7,29.83,SW,216,0.0,1.0,69,0.00,,CLR,0.00,VWS V14.01,2013-04-10 04:25:00,
2013-04-10 00:30:00,64.0,54.0,29.83,SW,235,3.0,5.0,70,0.00,,CLR,0.07,VWS V14.01,2013-04-10 04:30:00,
2013-04-10 00:35:00,64.6,54.2,29.83,West,259,0.0,6.0,69,0.00,,CLR,0.00,VWS V14.01,2013-04-10 04:35:00,
2013-04-10 00:40:00,64.8,54.4,29.83,West,259,0.0,6.0,69,0.00,,CLR,0.00,VWS V14.01,2013-04-10 04:40:00,
2013-04-10 00:45:00,64.9,54.5,29.83,West,259,3.0,6.0,69,0.00,,CLR,0.00,VWS V14.01,2013-04-10 04:45:00,
2013-04-10 00:50:00,65.4,55.0,29.83,WSW,257,1.0,6.0,69,0.00,,CLR,0.00,VWS V14.01,2013-04-10 04:50:00,
2013-04-10 00:55:00,65.8,55.0,29.83,West,274,2.0,6.0,68,0.00,,CLR,0.00,VWS V14.01,2013-04-10 04:55:00,
2013-04-10 01:00:00,66.2,54.9,29.83,West,261,0.0,0.0,67,0.00,,CLR,0.00,VWS V14.01,2013-04-10 05:00:00,
2013-04-10 01:05:00,66.4,55.1,29.83,WSW,254,2.0,4.0,67,0.00,,BKN090,0.00,VWS V14.01,2013-04-10 05:05:00,
2013-04-10 01:10:00,66.6,55.3,29.83,West,261,1.0,4.0,67,0.00,,BKN090,0.00,VWS V14.01,2013-04-10 05:10:00,
2013-04-10 01:15:00,66.8,55.5,29.83,WSW,250,2.0,5.0,67,0.00,,BKN090,0.00,VWS V14.01,2013-04-10 05:15:00,
2013-04-10 01:20:00,67.0,55.3,29.83,West,264,1.0,5.0,66,0.00,,BKN090,0.00,VWS V14.01,2013-04-10 05:20:00,
2013-04-10 01:25:00,67.1,55.4,29.83,NW,304,1.0,5.0,66,0.00,,BKN090,0.00,VWS V14.01,2013-04-10 05:25:00,
2013-04-10 01:30:00,67.1,55.4,29.83,WSW,257,2.0,5.0,66,0.00,,BKN090,0.00,VWS V14.01,2013-04-10 05:30:00,
2013-04-10 01:35:00,67.3,55.6,29.82,West,269,3.0,5.0,66,0.00,,BKN090,0.00,VWS V14.01,2013-04-10 05:35:00,
2013-04-10 01:40:00,67.4,55.7,29.82,WNW,292,1.0,5.0,66,0.00,,BKN090,0.00,VWS V14.01,2013-04-10 05:40:00,
2013-04-10 01:45:00,67.4,55.7,29.82,West,272,3.0,7.0,66,0.00,,BKN090,0.00,VWS V14.01,2013-04-10 05:45:00,
2013-04-10 01:50:00,67.6,55.4,29.82,WSW,257,3.0,7.0,65,0.00,,BKN090,0.00,VWS V14.01,2013-04-10 05:50:00,
2013-04-10 01:55:00,67.7,55.5,29.82,WSW,252,4.0,7.0,65,0.00,,BKN090,0.00,VWS V14.01,2013-04-10 05:55:00,
2013-04-10 02:00:00,67.7,55.5,29.82,WSW,249,1.0,3.0,65,0.00,,BKN085,0.00,VWS V14.01,2013-04-10 06:00:00,
2013-04-10 02:05:00,67.6,55.8,29.82,WSW,257,2.0,3.0,66,0.00,,BKN085,0.00,VWS V14.01,2013-04-10 06:05:00,
2013-04-10 02:10:00,67.5,55.8,29.83,West,262,1.0,3.0,66,0.00,,BKN085,0.00,VWS V14.01,2013-04-10 06:10:00,
2013-04-10 02:15:00,67.5,55.8,29.82,West,262,1.0,3.0,66,0.00,,BKN085,0.00,VWS V14.01,2013-04-10 06:15:00,
2013-04-10 02:20:00,67.3,56.0,29.82,West,262,0.0,3.0,67,0.00,,BKN085,0.00,VWS V14.01,2013-04-10 06:20:00,
2013-04-10 02:25:00,67.1,55.8,29.82,West,262,0.0,3.0,67,0.00,,BKN085,0.00,VWS V14.01,2013-04-10 06:25:00,
2013-04-10 02:30:00,66.9,55.6,29.82,West,260,0.0,0.0,67,0.00,,BKN085,0.00,VWS V14.01,2013-04-10 06:30:00,
2013-04-10 02:35:00,66.8,55.5,29.82,WSW,257,0.0,1.0,67,0.00,,BKN085,0.00,VWS V14.01,2013-04-10 06:35:00,
2013-04-10 02:40:00,66.6,55.7,29.83,West,261,0.0,1.0,68,0.00,,BKN085,0.00,VWS V14.01,2013-04-10 06:40:00,
2013-04-10 02:45:00,66.5,55.6,29.82,West,262,1.0,2.0,68,0.00,,BKN085,0.00,VWS V14.01,2013-04-10 06:45:00,
2013-04-10 02:50:00,66.3,55.8,29.82,West,262,0.0,2.0,69,0.00,,BKN085,0.00,VWS V14.01,2013-04-10 06:50:00,
2013-04-10 02:55:00,66.0,55.5,29.82,West,262,0.0,2.0,69,0.00,,BKN085,0.00,VWS V14.01,2013-04-10 06:55:00,
2013-04-10 03:00:00,65.7,55.3,29.82,West,262,0.0,0.0,69,0.00,,CLR,0.00,VWS V14.01,2013-04-10 07:00:00,
2013-04-10 03:05:00,65.3,55.3,29.83,West,262,0.0,1.0,70,0.00,,CLR,0.00,VWS V14.01,2013-04-10 07:05:00,
2013-04-10 03:10:00,65.0,55.0,29.83,West,262,1.0,1.0,70,0.00,,CLR,0.00,VWS V14.01,2013-04-10 07:10:00,
2013-04-10 03:15:00,64.8,55.2,29.83,West,262,2.0,3.0,71,0.00,,CLR,0.00,VWS V14.01,2013-04-10 07:15:00,
2013-04-10 03:20:00,64.6,55.0,29.83,West,262,0.0,3.0,71,0.00,,CLR,0.00,VWS V14.01,2013-04-10 07:20:00,
2013-04-10 03:25:00,64.3,55.1,29.83,West,262,0.0,3.0,72,0.00,,CLR,0.00,VWS V14.01,2013-04-10 07:25:00,
2013-04-10 03:30:00,64.0,54.8,29.83,West,262,0.0,0.0,72,0.00,,CLR,0.00,VWS V14.01,2013-04-10 07:30:00,
2013-04-10 03:35:00,63.7,54.5,29.83,West,262,0.0,0.0,72,0.00,,CLR,0.00,VWS V14.01,2013-04-10 07:35:00,
2013-04-10 03:40:00,63.3,54.5,29.84,NNW,341,0.0,3.0,73,0.00,,CLR,0.00,VWS V14.01,2013-04-10 07:40:00,
2013-04-10 03:45:00,63.1,54.3,29.84,SW,220,0.0,3.0,73,0.00,,CLR,0.00,VWS V14.01,2013-04-10 07:45:00,
2013-04-10 03:50:00,62.9,54.5,29.84,North,7,0.0,3.0,74,0.00,,CLR,0.00,VWS V14.01,2013-04-10 07:50:00,
2013-04-10 03:55:00,62.7,54.3,29.84,North,9,0.0,3.0,74,0.00,,CLR,0.00,VWS V14.01,2013-04-10 07:55:00,
2013-04-10 04:00:00,62.5,54.5,29.84,NNE,13,0.0,0.0,75,0.00,,SCT100,0.00,VWS V14.01,2013-04-10 08:00:00,
2013-04-10 04:05:00,62.2,54.2,29.84,NNE,13,0.0,0.0,75,0.00,,SCT100,0.00,VWS V14.01,2013-04-10 08:05:00,
2013-04-10 04:11:00,61.9,54.3,29.85,NNE,13,0.0,0.0,76,0.00,,SCT100,0.00,VWS V14.01,2013-04-10 08:11:00,
2013-04-10 04:16:00,61.6,54.3,29.85,NNE,13,0.0,0.0,77,0.00,,SCT100,0.00,VWS V14.01,2013-04-10 08:16:00,
2013-04-10 04:21:00,61.3,54.0,29.85,NNE,13,0.0,0.0,77,0.00,,SCT100,0.00,VWS V14.01,2013-04-10 08:21:00,
2013-04-10 04:26:00,61.1,54.2,29.85,NNE,13,0.0,1.0,78,0.00,,SCT100,0.00,VWS V14.01,2013-04-10 08:26:00,
2013-04-10 04:31:00,60.9,54.0,29.86,NNE,13,0.0,0.0,78,0.00,,SCT100,0.00,VWS V14.01,2013-04-10 08:31:00,
2013-04-10 04:36:00,60.9,54.0,29.86,NE,47,1.0,5.0,78,0.00,,SCT100,0.00,VWS V14.01,2013-04-10 08:36:00,
2013-04-10 04:41:00,61.1,53.5,29.86,NE,50,1.0,5.0,76,0.00,,SCT100,0.00,VWS V14.01,2013-04-10 08:41:00,
2013-04-10 04:46:00,61.4,53.4,29.86,NE,49,5.0,6.0,75,0.00,,SCT100,0.00,VWS V14.01,2013-04-10 08:46:00,
2013-04-10 04:51:00,61.8,53.4,29.86,NE,49,1.0,6.0,74,0.00,,SCT100,0.00,VWS V14.01,2013-04-10 08:51:00,
2013-04-10 04:56:00,62.0,53.3,29.86,ENE,64,3.0,7.0,73,0.00,,SCT100,0.00,VWS V14.01,2013-04-10 08:56:00,
2013-04-10 05:01:00,62.3,53.2,29.86,NE,53,3.0,6.0,72,0.00,,CLR,0.00,VWS V14.01,2013-04-10 09:01:00,
2013-04-10 05:06:00,62.4,53.3,29.87,NE,55,2.0,7.0,72,0.00,,CLR,0.00,VWS V14.01,2013-04-10 09:06:00,
2013-04-10 05:11:00,62.5,53.4,29.88,NE,51,5.0,9.0,72,0.00,,CLR,0.00,VWS V14.01,2013-04-10 09:11:00,
2013-04-10 05:16:00,62.6,53.5,29.88,NE,45,3.0,9.0,72,0.00,,CLR,0.00,VWS V14.01,2013-04-10 09:16:00,
2013-04-10 05:21:00,62.5,53.4,29.88,ENE,60,3.0,9.0,72,0.00,,CLR,0.00,VWS V14.01,2013-04-10 09:21:00,
2013-04-10 05:26:00,62.5,53.0,29.89,ENE,65,4.0,9.0,71,0.00,,CLR,0.00,VWS V14.01,2013-04-10 09:26:00,
2013-04-10 05:31:00,62.5,53.0,29.89,NE,53,1.0,3.0,71,0.00,,CLR,0.00,VWS V14.01,2013-04-10 09:31:00,
2013-04-10 05:36:00,62.4,52.9,29.89,NE,56,3.0,5.0,71,0.00,,CLR,0.00,VWS V14.01,2013-04-10 09:36:00,
2013-04-10 05:41:00,62.3,52.8,29.89,ENE,57,4.0,5.0,71,0.00,,CLR,0.00,VWS V14.01,2013-04-10 09:41:00,
2013-04-10 05:46:00,62.2,52.7,29.89,East,84,3.0,5.0,71,0.00,,CLR,0.00,VWS V14.01,2013-04-10 09:46:00,
2013-04-10 05:51:00,62.1,52.6,29.89,ENE,63,5.0,6.0,71,0.00,,CLR,0.00,VWS V14.01,2013-04-10 09:51:00,
2013-04-10 05:56:00,62.1,52.6,29.89,ENE,77,4.0,6.0,71,0.00,,CLR,0.00,VWS V14.01,2013-04-10 09:56:00,
2013-04-10 06:01:00,62.0,52.5,29.90,East,101,1.0,2.0,71,0.00,,SCT070,0.00,VWS V14.01,2013-04-10 10:01:00,
2013-04-10 06:06:00,61.9,52.4,29.90,NE,53,3.0,4.0,71,0.00,,SCT070,0.00,VWS V14.01,2013-04-10 10:06:00,
2013-04-10 06:12:00,61.9,52.8,29.90,NE,45,2.0,4.0,72,0.00,,SCT070,0.00,VWS V14.01,2013-04-10 10:12:00,
2013-04-10 06:17:00,61.8,52.7,29.90,NE,45,2.0,4.0,72,0.00,,SCT070,0.00,VWS V14.01,2013-04-10 10:17:00,
2013-04-10 06:22:00,61.8,52.7,29.90,NE,45,0.0,4.0,72,0.00,,SCT070,0.00,VWS V14.01,2013-04-10 10:22:00,
2013-04-10 06:27:00,61.6,52.5,29.90,NE,45,0.0,4.0,72,0.00,,SCT070,0.00,VWS V14.01,2013-04-10 10:27:00,
2013-04-10 06:32:00,61.5,52.4,29.90,NE,45,0.0,0.0,72,0.00,,SCT070,0.00,VWS V14.01,2013-04-10 10:32:00,
2013-04-10 06:37:00,61.3,52.6,29.90,NE,45,1.0,2.0,73,0.00,,SCT070,0.00,VWS V14.01,2013-04-10 10:37:00,
2013-04-10 06:42:00,61.2,52.9,29.90,NE,45,0.0,2.0,74,0.00,,SCT070,0.00,VWS V14.01,2013-04-10 10:42:00,
2013-04-10 06:47:00,61.0,52.7,29.90,NE,45,1.0,2.0,74,0.00,,SCT070,0.00,VWS V14.01,2013-04-10 10:47:00,
2013-04-10 06:52:00,60.9,52.6,29.91,NE,45,0.0,2.0,74,0.00,,SCT070,0.00,VWS V14.01,2013-04-10 10:52:00,
2013-04-10 06:57:00,60.7,52.4,29.90,NE,45,0.0,2.0,74,0.00,,SCT070,0.00,VWS V14.01,2013-04-10 10:57:00,
2013-04-10 07:02:00,60.6,52.6,29.91,NE,45,0.0,0.0,75,0.00,,OVC080,0.00,VWS V14.01,2013-04-10 11:02:00,
2013-04-10 07:07:00,60.4,52.5,29.91,NE,45,0.0,0.0,75,0.00,,OVC080,0.00,VWS V14.01,2013-04-10 11:07:00,
2013-04-10 07:12:00,60.3,52.7,29.91,NE,45,0.0,2.0,76,0.00,,OVC080,0.00,VWS V14.01,2013-04-10 11:12:00,
2013-04-10 07:17:00,60.3,52.7,29.91,NE,45,0.0,2.0,76,0.00,,OVC080,0.00,VWS V14.01,2013-04-10 11:17:00,
2013-04-10 07:22:00,60.3,53.1,29.91,NE,45,0.0,2.0,77,0.00,,OVC080,0.00,VWS V14.01,2013-04-10 11:22:00,
2013-04-10 07:27:00,60.3,53.1,29.91,NE,45,0.0,2.0,77,0.00,,OVC080,0.00,VWS V14.01,2013-04-10 11:27:00,
2013-04-10 07:32:00,60.4,53.2,29.91,West,266,0.0,0.0,77,0.00,,OVC080,0.00,VWS V14.01,2013-04-10 11:32:00,
2013-04-10 07:37:00,60.6,53.4,29.91,West,266,0.0,0.0,77,0.00,,OVC080,0.00,VWS V14.01,2013-04-10 11:37:00,
2013-04-10 07:42:00,60.8,53.2,29.90,West,266,0.0,0.0,76,0.00,,OVC080,0.00,VWS V14.01,2013-04-10 11:42:00,
2013-04-10 07:47:00,61.2,53.2,29.90,West,263,0.0,0.0,75,0.00,,OVC080,0.00,VWS V14.01,2013-04-10 11:47:00,
2013-04-10 07:52:00,61.9,53.5,29.91,West,265,0.0,0.0,74,0.00,,OVC080,0.00,VWS V14.01,2013-04-10 11:52:00,
2013-04-10 07:57:00,62.5,53.0,29.92,North,9,2.0,4.0,71,0.00,,OVC080,0.00,VWS V14.01,2013-04-10 11:57:00,
2013-04-10 08:02:00,63.0,53.5,29.92,North,9,0.0,1.0,71,0.00,,FEW060,0.00,VWS V14.01,2013-04-10 12:02:00,
2013-04-10 08:07:00,63.5,53.9,29.92,ESE,102,1.0,2.0,71,0.00,,FEW060,0.00,VWS V14.01,2013-04-10 12:07:00,
2013-04-10 08:12:00,64.1,54.5,29.92,SSE,168,1.0,5.0,71,0.00,,FEW060,0.00,VWS V14.01,2013-04-10 12:12:00,
2013-04-10 08:17:00,64.4,54.8,29.92,SSE,168,2.0,5.0,71,0.00,,FEW060,0.07,VWS V14.01,2013-04-10 12:17:00,
2013-04-10 08:22:00,64.7,54.7,29.92,SSE,168,0.0,5.0,70,0.00,,FEW060,0.00,VWS V14.01,2013-04-10 12:22:00,
2013-04-10 08:27:00,65.1,55.1,29.92,SSE,168,0.0,5.0,70,0.00,,FEW060,0.00,VWS V14.01,2013-04-10 12:27:00,
2013-04-10 08:32:00,65.5,55.5,29.92,SSE,167,0.0,0.0,70,0.00,,FEW060,0.00,VWS V14.01,2013-04-10 12:32:00,
2013-04-10 08:37:00,66.0,55.2,29.91,SSE,167,0.0,1.0,68,0.00,,FEW060,0.00,VWS V14.01,2013-04-10 12:37:00,
2013-04-10 08:42:00,66.6,55.7,29.91,SSE,168,0.0,1.0,68,0.00,,FEW060,0.00,VWS V14.01,2013-04-10 12:42:00,
2013-04-10 08:47:00,67.1,55.4,29.91,SSE,168,0.0,1.0,66,0.00,,FEW060,0.00,VWS V14.01,2013-04-10 12:47:00,
2013-04-10 08:52:00,67.5,55.3,29.91,SSE,168,0.0,1.0,65,0.00,,FEW060,0.00,VWS V14.01,2013-04-10 12:52:00,
2013-04-10 08:57:00,68.0,55.8,29.91,SSE,168,0.0,1.0,65,0.00,,FEW060,0.00,VWS V14.01,2013-04-10 12:57:00,
2013-04-10 09:02:00,68.4,55.8,29.91,SSE,168,0.0,0.0,64,0.00,,OVC070,0.00,VWS V14.01,2013-04-10 13:02:00,
2013-04-10 09:07:00,68.9,56.7,29.90,SSE,168,0.0,0.0,65,0.00,,OVC070,0.00,VWS V14.01,2013-04-10 13:07:00,
2013-04-10 09:12:00,69.4,56.7,29.90,SSE,168,1.0,2.0,64,0.00,,OVC070,0.00,VWS V14.01,2013-04-10 13:12:00,
2013-04-10 09:17:00,69.9,56.8,29.90,SSE,168,0.0,4.0,63,0.00,,OVC070,0.00,VWS V14.01,2013-04-10 13:17:00,
2013-04-10 09:22:00,70.0,56.8,29.90,SSE,168,3.0,4.0,63,0.00,,OVC070,0.00,VWS V14.01,2013-04-10 13:22:00,
2013-04-10 09:27:00,70.3,57.1,29.90,SSE,168,0.0,4.0,63,0.00,,OVC070,0.00,VWS V14.01,2013-04-10 13:27:00,
2013-04-10 09:32:00,70.7,57.1,29.90,SSE,168,2.0,3.0,62,0.00,,OVC070,0.00,VWS V14.01,2013-04-10 13:32:00,
2013-04-10 09:37:00,70.9,57.2,29.90,SSE,168,3.0,5.0,62,0.00,,OVC070,0.00,VWS V14.01,2013-04-10 13:37:00,
2013-04-10 09:42:00,71.4,57.7,29.90,SSE,168,0.0,5.0,62,0.00,,OVC070,0.00,VWS V14.01,2013-04-10 13:42:00,
2013-04-10 09:47:00,72.0,57.8,29.91,SSE,168,2.0,5.0,61,0.00,,OVC070,0.00,VWS V14.01,2013-04-10 13:47:00,
2013-04-10 09:52:00,72.2,57.6,29.91,SSE,163,2.0,5.0,60,0.00,,OVC070,0.00,VWS V14.01,2013-04-10 13:52:00,
2013-04-10 09:57:00,72.4,58.2,29.91,South,183,0.0,5.0,61,0.00,,OVC070,0.00,VWS V14.01,2013-04-10 13:57:00,
2013-04-10 10:02:00,72.7,58.0,29.90,South,186,2.0,4.0,60,0.00,,CLR,0.00,VWS V14.01,2013-04-10 14:02:00,
2013-04-10 10:07:00,73.2,58.5,29.90,South,186,0.0,4.0,60,0.00,,CLR,0.00,VWS V14.01,2013-04-10 14:07:00,
2013-04-10 10:12:00,73.6,58.4,29.90,West,279,3.0,5.0,59,0.00,,CLR,0.00,VWS V14.01,2013-04-10 14:12:00,
2013-04-10 10:17:00,73.9,58.7,29.89,SSW,205,5.0,6.0,59,0.00,,CLR,0.00,VWS V14.01,2013-04-10 14:17:00,
2013-04-10 10:22:00,74.7,59.0,29.89,South,184,2.0,6.0,58,0.00,,CLR,0.00,VWS V14.01,2013-04-10 14:22:00,
2013-04-10 10:27:00,75.2,58.9,29.89,SW,235,4.0,6.0,57,0.00,,CLR,0.00,VWS V14.01,2013-04-10 14:27:00,
2013-04-10 10:32:00,75.4,59.1,29.89,SW,230,4.0,4.0,57,0.00,,CLR,0.00,VWS V14.01,2013-04-10 14:32:00,
2013-04-10 10:37:00,75.6,58.8,29.89,WSW,243,2.0,5.0,56,0.00,,CLR,0.00,VWS V14.01,2013-04-10 14:37:00,
2013-04-10 10:42:00,75.5,58.7,29.89,NNW,340,2.0,8.0,56,0.00,,CLR,0.00,VWS V14.01,2013-04-10 14:42:00,
2013-04-10 10:47:00,75.9,59.1,29.89,West,276,2.0,8.0,56,0.00,,CLR,0.00,VWS V14.01,2013-04-10 14:47:00,
2013-04-10 10:52:00,76.5,59.7,29.89,WNW,301,0.0,8.0,56,0.00,,CLR,0.00,VWS V14.01,2013-04-10 14:52:00,
2013-04-10 10:57:00,77.1,59.7,29.89,WSW,258,4.0,8.0,55,0.00,,CLR,0.00,VWS V14.01,2013-04-10 14:57:00,
2013-04-10 11:02:00,77.7,60.3,29.89,NNW,340,2.0,5.0,55,0.00,,CLR,0.00,VWS V14.01,2013-04-10 15:02:00,
2013-04-10 11:07:00,77.9,60.5,29.89,NNW,328,1.0,5.0,55,0.00,,CLR,0.00,VWS V14.01,2013-04-10 15:07:00,
2013-04-10 11:12:00,78.2,60.2,29.89,WSW,254,2.0,5.0,54,0.00,,CLR,0.00,VWS V14.01,2013-04-10 15:12:00,
2013-04-10 11:17:00,78.9,60.9,29.89,SSE,168,0.0,5.0,54,0.00,,CLR,0.00,VWS V14.01,2013-04-10 15:17:00,
2013-04-10 11:22:00,79.6,61.5,29.89,South,179,4.0,6.0,54,0.00,,CLR,0.00,VWS V14.01,2013-04-10 15:22:00,
2013-04-10 11:27:00,80.2,61.5,29.89,South,179,1.0,6.0,53,0.00,,CLR,0.00,VWS V14.01,2013-04-10 15:27:00,
2013-04-10 11:32:00,80.7,61.5,29.89,West,280,4.0,7.0,52,0.00,,CLR,0.00,VWS V14.01,2013-04-10 15:32:00,
2013-04-10 11:37:00,81.0,61.7,29.89,SSW,209,4.0,8.0,52,0.00,,CLR,0.00,VWS V14.01,2013-04-10 15:37:00,
2013-04-10 11:42:00,81.6,62.3,29.88,SSW,203,3.0,10.0,52,0.00,,CLR,0.00,VWS V14.01,2013-04-10 15:42:00,
2013-04-10 11:47:00,81.7,61.8,29.88,West,260,3.0,10.0,51,0.00,,CLR,0.00,VWS V14.01,2013-04-10 15:47:00,
2013-04-10 11:52:00,80.9,62.2,29.87,West,259,7.0,10.0,53,0.00,,CLR,0.00,VWS V14.01,2013-04-10 15:52:00,
2013-04-10 11:57:00,80.3,62.7,29.87,SW,233,6.0,10.0,55,0.00,,CLR,0.00,VWS V14.01,2013-04-10 15:57:00,
2013-04-10 12:02:00,80.3,62.7,29.87,SSW,208,6.0,6.0,55,0.00,,BKN060,0.00,VWS V14.01,2013-04-10 16:02:00,
2013-04-10 12:07:00,80.6,62.4,29.87,NW,310,4.0,9.0,54,0.00,,BKN060,0.00,VWS V14.01,2013-04-10 16:07:00,
2013-04-10 12:12:00,80.8,63.1,29.87,WSW,246,3.0,9.0,55,0.00,,BKN060,0.00,VWS V14.01,2013-04-10 16:12:00,
2013-04-10 12:17:00,81.1,62.9,29.87,WSW,245,3.0,9.0,54,0.00,,BKN060,0.00,VWS V14.01,2013-04-10 16:17:00,
2013-04-10 12:22:00,81.2,63.0,29.87,West,266,3.0,9.0,54,0.00,,BKN060,0.00,VWS V14.01,2013-04-10 16:22:00,
2013-04-10 12:27:00,80.8,62.6,29.87,WSW,257,6.0,10.0,54,0.00,,BKN060,0.00,VWS V14.01,2013-04-10 16:27:00,
2013-04-10 12:32:00,81.0,62.8,29.87,WNW,282,10.0,10.0,54,0.00,,BKN060,0.00,VWS V14.01,2013-04-10 16:32:00,
2013-04-10 12:37:00,80.9,62.7,29.86,WNW,282,3.0,11.0,54,0.00,,BKN060,0.00,VWS V14.01,2013-04-10 16:37:00,
2013-04-10 12:43:00,80.7,62.5,29.86,West,277,4.0,11.0,54,0.00,,BKN060,0.00,VWS V14.01,2013-04-10 16:43:00,
2013-04-10 12:48:00,80.7,62.5,29.86,WNW,287,4.0,11.0,54,0.00,,BKN060,0.00,VWS V14.01,2013-04-10 16:48:00,
2013-04-10 12:53:00,80.8,62.6,29.85,WNW,286,2.0,11.0,54,0.00,,BKN060,0.00,VWS V14.01,2013-04-10 16:53:00,
2013-04-10 12:58:00,81.1,62.9,29.84,West,277,1.0,11.0,54,0.00,,BKN060,0.00,VWS V14.01,2013-04-10 16:58:00,
2013-04-10 13:03:00,81.7,62.9,29.84,North,7,1.0,5.0,53,0.00,,SCT075,0.00,VWS V14.01,2013-04-10 17:03:00,
2013-04-10 13:08:00,82.3,62.9,29.84,SSW,211,5.0,8.0,52,0.00,,SCT075,0.00,VWS V14.01,2013-04-10 17:08:00,
2013-04-10 13:13:00,82.4,62.5,29.84,WSW,257,7.0,12.0,51,0.00,,SCT075,0.00,VWS V14.01,2013-04-10 17:13:00,
2013-04-10 13:18:00,82.0,62.7,29.84,WSW,254,4.0,12.0,52,0.00,,SCT075,0.00,VWS V14.01,2013-04-10 17:18:00,
2013-04-10 13:23:00,81.7,62.4,29.84,West,275,2.0,12.0,52,0.00,,SCT075,0.00,VWS V14.01,2013-04-10 17:23:00,
2013-04-10 13:28:00,81.6,62.8,29.84,West,263,7.0,12.0,53,0.00,,SCT075,0.00,VWS V14.01,2013-04-10 17:28:00,
2013-04-10 13:33:00,81.5,63.3,29.83,West,270,3.0,8.0,54,0.00,,SCT075,0.00,VWS V14.01,2013-04-10 17:33:00,
2013-04-10 13:38:00,81.6,62.3,29.83,West,278,2.0,8.0,52,0.00,,SCT075,0.00,VWS V14.01,2013-04-10 17:38:00,
2013-04-10 13:43:00,81.9,62.6,29.83,WNW,295,2.0,8.0,52,0.00,,SCT075,0.00,VWS V14.01,2013-04-10 17:43:00,
2013-04-10 13:48:00,82.2,62.8,29.83,SW,236,4.0,9.0,52,0.00,,SCT075,0.00,VWS V14.01,2013-04-10 17:48:00,
2013-04-10 13:53:00,82.3,62.9,29.83,SW,236,7.0,13.0,52,0.00,,SCT075,0.00,VWS V14.01,2013-04-10 17:53:00,
2013-04-10 13:58:00,82.8,63.4,29.82,WSW,242,4.0,13.0,52,0.00,,SCT075,0.00,VWS V14.01,2013-04-10 17:58:00,
2013-04-10 14:03:00,83.2,62.7,29.82,WSW,255,5.0,9.0,50,0.00,,BKN075,0.00,VWS V14.01,2013-04-10 18:03:00,
2013-04-10 14:08:00,83.6,64.1,29.82,SW,229,2.0,9.0,52,0.00,,BKN075,0.00,VWS V14.01,2013-04-10 18:08:00,
2013-04-10 14:13:00,84.0,63.9,29.81,SSW,207,3.0,9.0,51,0.00,,BKN075,0.00,VWS V14.01,2013-04-10 18:13:00,
2013-04-10 14:18:00,83.9,63.3,29.82,SW,235,7.0,15.0,50,0.00,,BKN075,0.07,VWS V14.01,2013-04-10 18:18:00,
2013-04-10 14:23:00,83.5,63.5,29.82,WSW,254,12.0,15.0,51,0.00,,BKN075,0.00,VWS V14.01,2013-04-10 18:23:00,
2013-04-10 14:28:00,82.9,63.5,29.81,WSW,255,8.0,15.0,52,0.00,,BKN075,0.00,VWS V14.01,2013-04-10 18:28:00,
2013-04-10 14:33:00,82.6,63.2,29.81,WNW,289,4.0,10.0,52,0.00,,BKN075,0.00,VWS V14.01,2013-04-10 18:33:00,
2013-04-10 14:38:00,82.4,63.0,29.81,West,268,6.0,11.0,52,0.00,,BKN075,0.00,VWS V14.01,2013-04-10 18:38:00,
2013-04-10 14:43:00,82.2,63.4,29.80,WSW,249,8.0,11.0,53,0.00,,BKN075,0.00,VWS V14.01,2013-04-10 18:43:00,
2013-04-10 14:48:00,82.3,62.9,29.80,WSW,252,10.0,13.0,52,0.00,,BKN075,0.00,VWS V14.01,2013-04-10 18:48:00,
2013-04-10 14:53:00,82.6,63.8,29.80,SW,234,5.0,17.0,53,0.00,,BKN075,0.00,VWS V14.01,2013-04-10 18:53:00,
2013-04-10 14:58:00,82.9,63.5,29.80,WSW,247,6.0,17.0,52,0.00,,BKN075,0.00,VWS V14.01,2013-04-10 18:58:00,
2013-04-10 15:03:00,83.0,63.0,29.80,WSW,242,8.0,14.0,51,0.00,,BKN110,0.00,VWS V14.01,2013-04-10 19:03:00,
2013-04-10 15:08:00,83.5,64.0,29.79,SW,236,11.0,14.0,52,0.00,,BKN110,0.00,VWS V14.01,2013-04-10 19:08:00,
2013-04-10 15:13:00,83.7,63.7,29.79,WSW,252,6.0,14.0,51,0.00,,BKN110,0.00,VWS V14.01,2013-04-10 19:13:00,
2013-04-10 15:18:00,83.8,63.8,29.79,WNW,300,6.0,14.0,51,0.00,,BKN110,0.00,VWS V14.01,2013-04-10 19:18:00,
2013-04-10 15:23:00,83.8,64.3,29.79,West,274,2.0,14.0,52,0.00,,BKN110,0.00,VWS V14.01,2013-04-10 19:23:00,
2013-04-10 15:28:00,84.0,64.5,29.79,SW,222,5.0,14.0,52,0.00,,BKN110,0.00,VWS V14.01,2013-04-10 19:28:00,
2013-04-10 15:33:00,83.8,64.3,29.79,WSW,248,6.0,12.0,52,0.00,,BKN110,0.00,VWS V14.01,2013-04-10 19:33:00,
2013-04-10 15:38:00,83.6,64.1,29.78,WSW,258,3.0,12.0,52,0.00,,BKN110,0.00,VWS V14.01,2013-04-10 19:38:00,
2013-04-10 15:43:00,83.8,64.3,29.78,SW,225,4.0,12.0,52,0.00,,BKN110,0.00,VWS V14.01,2013-04-10 19:43:00,
2013-04-10 15:48:00,83.9,63.8,29.77,WSW,251,7.0,12.0,51,0.00,,BKN110,0.00,VWS V14.01,2013-04-10 19:48:00,
2013-04-10 15:53:00,83.6,64.1,29.77,WSW,248,5.0,14.0,52,0.00,,BKN110,0.00,VWS V14.01,2013-04-10 19:53:00,
2013-04-10 15:58:00,83.5,64.0,29.77,WSW,241,6.0,14.0,52,0.00,,BKN110,0.00,VWS V14.01,2013-04-10 19:58:00,
2013-04-10 16:03:00,83.4,63.4,29.77,WSW,257,7.0,13.0,51,0.00,,FEW070,0.00,VWS V14.01,2013-04-10 20:03:00,
2013-04-10 16:08:00,83.3,63.9,29.77,WNW,298,4.0,13.0,52,0.00,,FEW070,0.00,VWS V14.01,2013-04-10 20:08:00,
2013-04-10 16:13:00,83.1,63.7,29.77,WNW,282,3.0,13.0,52,0.00,,FEW070,0.00,VWS V14.01,2013-04-10 20:13:00,
2013-04-10 16:18:00,83.0,63.6,29.77,WSW,249,6.0,14.0,52,0.00,,FEW070,0.00,VWS V14.01,2013-04-10 20:18:00,
2013-04-10 16:23:00,82.8,63.4,29.77,West,262,11.0,14.0,52,0.00,,FEW070,0.00,VWS V14.01,2013-04-10 20:23:00,
2013-04-10 16:28:00,82.5,63.1,29.77,WSW,252,10.0,14.0,52,0.00,,FEW070,0.00,VWS V14.01,2013-04-10 20:28:00,
2013-04-10 16:33:00,82.3,63.5,29.76,SSW,193,8.0,10.0,53,0.00,,FEW070,0.00,VWS V14.01,2013-04-10 20:33:00,
2013-04-10 16:38:00,82.2,63.9,29.76,West,266,5.0,10.0,54,0.00,,FEW070,0.00,VWS V14.01,2013-04-10 20:38:00,
2013-04-10 16:43:00,81.9,63.6,29.76,SW,224,5.0,10.0,54,0.00,,FEW070,0.00,VWS V14.01,2013-04-10 20:43:00,
2013-04-10 16:48:00,81.6,63.4,29.76,WSW,250,7.0,10.0,54,0.00,,FEW070,0.00,VWS V14.01,2013-04-10 20:48:00,
2013-04-10 16:53:00,81.4,63.7,29.76,West,266,3.0,10.0,55,0.00,,FEW070,0.00,VWS V14.01,2013-04-10 20:53:00,
2013-04-10 16:58:00,81.1,63.4,29.78,NW,324,6.0,10.0,55,0.00,,FEW070,0.00,VWS V14.01,2013-04-10 20:58:00,
2013-04-10 17:03:00,79.8,61.7,29.81,NNW,339,7.0,31.0,54,0.00,,,0.00,VWS V14.01,2013-04-10 21:03:00,
2013-04-10 17:08:00,77.3,62.3,29.81,NW,321,6.0,31.0,60,0.00,,,0.00,VWS V14.01,2013-04-10 21:08:00,
2013-04-10 17:13:00,74.7,62.6,29.82,West,280,2.0,31.0,66,0.00,,,0.00,VWS V14.01,2013-04-10 21:13:00,
2013-04-10 17:18:00,72.7,63.5,29.82,NW,310,5.0,31.0,73,0.00,,,0.00,VWS V14.01,2013-04-10 21:18:00,
2013-04-10 17:23:00,69.4,64.4,29.81,North,1,4.0,31.0,84,0.15,,,0.15,VWS V14.01,2013-04-10 21:23:00,
2013-04-10 17:28:00,67.9,63.6,29.81,SW,223,6.0,31.0,86,0.21,,,0.21,VWS V14.01,2013-04-10 21:28:00,
2013-04-10 17:33:00,67.3,63.3,29.78,SW,214,0.0,8.0,87,0.25,,,0.25,VWS V14.01,2013-04-10 21:33:00,
2013-04-10 17:38:00,66.7,63.0,29.76,SSW,202,0.0,8.0,88,0.27,,,0.27,VWS V14.01,2013-04-10 21:38:00,
2013-04-10 17:43:00,66.4,63.1,29.76,SSW,202,0.0,8.0,89,0.27,,,0.27,VWS V14.01,2013-04-10 21:43:00,
2013-04-10 17:48:00,66.1,63.1,29.76,SSW,202,1.0,8.0,90,0.27,,,0.27,VWS V14.01,2013-04-10 21:48:00,
2013-04-10 17:53:00,65.8,63.4,29.77,North,350,4.0,8.0,92,0.27,,,0.27,VWS V14.01,2013-04-10 21:53:00,
2013-04-10 17:58:00,65.4,63.0,29.78,North,358,0.0,8.0,92,0.27,,,0.27,VWS V14.01,2013-04-10 21:58:00,
2013-04-10 18:03:00,65.3,63.2,29.78,SW,219,0.0,2.0,93,0.27,,-RA,0.27,VWS V14.01,2013-04-10 22:03:00,
2013-04-10 18:08:00,65.2,63.1,29.78,North,351,3.0,6.0,93,0.27,,-RA,0.27,VWS V14.01,2013-04-10 22:08:00,
2013-04-10 18:13:00,65.0,62.9,29.79,West,272,0.0,6.0,93,0.27,,-RA,0.27,VWS V14.01,2013-04-10 22:13:00,
2013-04-10 18:18:00,65.0,62.9,29.77,SSW,203,0.0,6.0,93,0.27,,-RA,0.27,VWS V14.01,2013-04-10 22:18:00,
2013-04-10 18:23:00,64.9,62.8,29.76,SSW,203,0.0,6.0,93,0.27,,-RA,0.27,VWS V14.01,2013-04-10 22:23:00,
2013-04-10 18:28:00,64.8,62.7,29.77,SSW,203,0.0,6.0,93,0.27,,-RA,0.27,VWS V14.01,2013-04-10 22:28:00,
2013-04-10 18:33:00,64.8,63.0,29.76,SSW,203,0.0,3.0,94,0.06,,SCT100,0.27,VWS V14.01,2013-04-10 22:33:00,
2013-04-10 18:38:00,64.7,62.9,29.76,SSW,203,1.0,3.0,94,0.06,,SCT100,0.27,VWS V14.01,2013-04-10 22:38:00,
2013-04-10 18:44:00,64.6,62.8,29.76,SSW,203,0.0,3.0,94,0.06,,SCT100,0.27,VWS V14.01,2013-04-10 22:44:00,
2013-04-10 18:49:00,64.5,62.7,29.76,SSW,203,0.0,3.0,94,0.06,,SCT100,0.27,VWS V14.01,2013-04-10 22:49:00,
2013-04-10 18:54:00,64.5,63.0,29.77,NW,320,2.0,4.0,95,0.06,,SCT100,0.27,VWS V14.01,2013-04-10 22:54:00,
2013-04-10 18:59:00,64.3,62.8,29.77,NW,321,0.0,4.0,95,0.06,,SCT100,0.27,VWS V14.01,2013-04-10 22:59:00,
2013-04-10 19:04:00,64.2,62.7,29.77,NW,321,0.0,0.0,95,0.00,,CLR,0.27,VWS V14.01,2013-04-10 23:04:00,
2013-04-10 19:09:00,64.1,62.6,29.77,NW,321,0.0,0.0,95,0.00,,CLR,0.27,VWS V14.01,2013-04-10 23:09:00,
2013-04-10 19:14:00,63.9,62.4,29.76,NW,321,0.0,2.0,95,0.00,,CLR,0.27,VWS V14.01,2013-04-10 23:14:00,
2013-04-10 19:19:00,63.8,62.3,29.76,NW,321,0.0,2.0,95,0.00,,CLR,0.27,VWS V14.01,2013-04-10 23:19:00,
2013-04-10 19:24:00,63.6,62.2,29.76,NW,321,0.0,2.0,95,0.00,,CLR,0.27,VWS V14.01,2013-04-10 23:24:00,
2013-04-10 19:29:00,63.5,62.0,29.76,NW,321,0.0,2.0,95,0.00,,CLR,0.27,VWS V14.01,2013-04-10 23:29:00,
2013-04-10 19:34:00,63.3,61.8,29.76,NW,321,0.0,0.0,95,0.00,,CLR,0.27,VWS V14.01,2013-04-10 23:34:00,
2013-04-10 19:39:00,63.1,61.7,29.76,NW,321,0.0,0.0,95,0.00,,CLR,0.27,VWS V14.01,2013-04-10 23:39:00,
2013-04-10 19:44:00,62.9,61.5,29.76,NW,320,0.0,0.0,95,0.00,,CLR,0.27,VWS V14.01,2013-04-10 23:44:00,
2013-04-10 19:49:00,62.7,61.2,29.76,NW,320,0.0,0.0,95,0.00,,CLR,0.27,VWS V14.01,2013-04-10 23:49:00,
2013-04-10 19:54:00,62.5,61.0,29.77,NW,320,0.0,0.0,95,0.00,,CLR,0.27,VWS V14.01,2013-04-10 23:54:00,
2013-04-10 19:59:00,62.3,61.2,29.77,NW,320,0.0,1.0,96,0.00,,CLR,0.27,VWS V14.01,2013-04-10 23:59:00,
2013-04-10 20:04:00,62.0,60.8,29.77,NW,320,2.0,2.0,96,0.00,,FEW120,0.27,VWS V14.01,2013-04-11 00:04:00,
2013-04-10 20:09:00,61.9,60.8,29.82,North,356,5.0,9.0,96,0.00,,FEW120,0.27,VWS V14.01,2013-04-11 00:09:00,
2013-04-10 20:14:00,62.3,61.7,29.85,North,354,5.0,14.0,98,0.00,,FEW120,0.27,VWS V14.01,2013-04-11 00:14:00,
2013-04-10 20:19:00,62.3,61.7,29.85,NNE,17,0.0,14.0,98,0.00,,FEW120,0.27,VWS V14.01,2013-04-11 00:19:00,
2013-04-10 20:24:00,62.3,61.4,29.85,NNW,336,0.0,14.0,97,0.02,,FEW120,0.29,VWS V14.01,2013-04-11 00:24:00,
2013-04-10 20:29:00,62.3,61.4,29.85,SSW,204,0.0,14.0,97,0.04,,FEW120,0.31,VWS V14.01,2013-04-11 00:29:00,
2013-04-10 20:34:00,62.3,61.4,29.86,SSW,202,0.0,3.0,97,0.05,,FEW120,0.32,VWS V14.01,2013-04-11 00:34:00,
2013-04-10 20:39:00,62.3,61.4,29.87,SSW,202,1.0,4.0,97,0.06,,FEW120,0.33,VWS V14.01,2013-04-11 00:39:00,
2013-04-10 20:44:00,62.2,61.3,29.88,SSW,202,3.0,4.0,97,0.08,,FEW120,0.35,VWS V14.01,2013-04-11 00:44:00,
2013-04-10 20:49:00,62.3,61.4,29.87,SSW,204,0.0,6.0,97,0.14,,FEW120,0.41,VWS V14.01,2013-04-11 00:49:00,
2013-04-10 20:54:00,62.2,61.3,29.88,SSW,204,2.0,6.0,97,0.17,,FEW120,0.44,VWS V14.01,2013-04-11 00:54:00,
2013-04-10 20:59:00,62.2,61.0,29.89,SW,220,4.0,10.0,96,0.19,,FEW120,0.46,VWS V14.01,2013-04-11 00:59:00,
2013-04-10 21:04:00,62.2,61.0,29.89,SW,234,3.0,8.0,96,0.21,,OVC085,0.48,VWS V14.01,2013-04-11 01:04:00,
2013-04-10 21:09:00,62.2,61.0,29.90,WSW,248,3.0,10.0,96,0.22,,OVC085,0.49,VWS V14.01,2013-04-11 01:09:00,
2013-04-10 21:14:00,62.2,60.8,29.90,WSW,237,1.0,10.0,95,0.22,,OVC085,0.49,VWS V14.01,2013-04-11 01:14:00,
2013-04-10 21:19:00,62.1,60.7,29.89,WSW,242,5.0,11.0,95,0.23,,OVC085,0.50,VWS V14.01,2013-04-11 01:19:00,
2013-04-10 21:24:00,62.0,60.6,29.89,WSW,251,3.0,11.0,95,0.24,,OVC085,0.51,VWS V14.01,2013-04-11 01:24:00,
2013-04-10 21:29:00,61.9,60.5,29.88,SSW,204,4.0,11.0,95,0.26,,OVC085,0.53,VWS V14.01,2013-04-11 01:29:00,
2013-04-10 21:34:00,61.8,60.1,29.87,SSW,206,1.0,5.0,94,0.23,,OVC100,0.54,VWS V14.01,2013-04-11 01:34:00,
2013-04-10 21:39:00,61.6,59.9,29.88,WSW,250,2.0,5.0,94,0.24,,OVC100,0.55,VWS V14.01,2013-04-11 01:39:00,
2013-04-10 21:44:00,61.5,59.8,29.88,SW,224,1.0,5.0,94,0.26,,OVC100,0.57,VWS V14.01,2013-04-11 01:44:00,
2013-04-10 21:49:00,61.4,59.7,29.88,WSW,238,1.0,5.0,94,0.27,,OVC100,0.58,VWS V14.01,2013-04-11 01:49:00,
2013-04-10 21:54:00,61.3,59.6,29.87,WSW,238,0.0,5.0,94,0.28,,OVC100,0.59,VWS V14.01,2013-04-11 01:54:00,
2013-04-10 21:59:00,61.1,59.7,29.87,West,264,0.0,5.0,95,0.28,,OVC100,0.59,VWS V14.01,2013-04-11 01:59:00,
2013-04-10 22:04:00,61.0,59.6,29.86,West,264,0.0,0.0,95,0.12,,-RA,0.59,VWS V14.01,2013-04-11 02:04:00,
2013-04-10 22:09:00,60.8,59.4,29.86,West,264,0.0,0.0,95,0.12,,-RA,0.59,VWS V14.01,2013-04-11 02:09:00,
2013-04-10 22:14:00,60.7,59.3,29.87,West,264,2.0,3.0,95,0.13,,-RA,0.60,VWS V14.01,2013-04-11 02:14:00,
2013-04-10 22:19:00,60.6,59.5,29.86,West,264,0.0,3.0,96,0.13,,-RA,0.60,VWS V14.01,2013-04-11 02:19:00,
2013-04-10 22:24:00,60.6,59.5,29.86,West,264,0.0,3.0,96,0.13,,-RA,0.60,VWS V14.01,2013-04-11 02:24:00,
2013-04-10 22:29:00,60.4,59.3,29.86,West,264,0.0,3.0,96,0.13,,-RA,0.60,VWS V14.01,2013-04-11 02:29:00,
2013-04-10 22:34:00,60.4,59.3,29.86,West,263,0.0,3.0,96,0.07,,-RA,0.60,VWS V14.01,2013-04-11 02:34:00,
2013-04-10 22:39:00,60.3,59.2,29.80,ENE,58,2.0,5.0,96,0.08,,-RA,0.61,VWS V14.01,2013-04-11 02:39:00,
2013-04-10 22:44:00,60.3,59.2,29.82,ENE,58,0.0,5.0,96,0.08,,-RA,0.61,VWS V14.01,2013-04-11 02:44:00,
2013-04-10 22:49:00,60.2,59.3,29.83,ENE,57,1.0,5.0,97,0.08,,-RA,0.61,VWS V14.01,2013-04-11 02:49:00,
2013-04-10 22:54:00,60.1,59.2,29.82,ENE,57,0.0,5.0,97,0.08,,-RA,0.61,VWS V14.01,2013-04-11 02:54:00,
2013-04-10 22:59:00,60.0,59.2,29.81,East,92,2.0,5.0,97,0.08,,-RA,0.61,VWS V14.01,2013-04-11 02:59:00,
2013-04-10 23:04:00,59.9,59.0,29.82,SE,127,2.0,3.0,97,0.02,,-RA,0.61,VWS V14.01,2013-04-11 03:04:00,
2013-04-10 23:09:00,59.8,59.0,29.83,SE,134,0.0,3.0,97,0.02,,-RA,0.61,VWS V14.01,2013-04-11 03:09:00,
2013-04-10 23:14:00,59.8,59.0,29.85,SSE,167,0.0,3.0,97,0.02,,-RA,0.61,VWS V14.01,2013-04-11 03:14:00,
2013-04-10 23:19:00,59.7,58.8,29.85,SSE,167,0.0,3.0,97,0.02,,-RA,0.61,VWS V14.01,2013-04-11 03:19:00,
2013-04-10 23:24:00,59.8,59.2,29.88,West,259,3.0,7.0,98,0.02,,-RA,0.61,VWS V14.01,2013-04-11 03:24:00,
2013-04-10 23:29:00,59.8,59.2,29.89,WSW,247,3.0,7.0,98,0.02,,-RA,0.61,VWS V14.01,2013-04-11 03:29:00,
2013-04-10 23:34:00,59.9,59.3,29.88,NW,315,0.0,5.0,98,0.02,,-RA,0.62,VWS V14.01,2013-04-11 03:34:00,
2013-04-10 23:39:00,59.9,59.3,29.88,WSW,240,2.0,5.0,98,0.03,,-RA,0.63,VWS V14.01,2013-04-11 03:39:00,
2013-04-10 23:44:00,59.9,59.3,29.87,SSW,210,2.0,5.0,98,0.03,,-RA,0.63,VWS V14.01,2013-04-11 03:44:00,
2013-04-10 23:49:00,59.9,59.3,29.85,WSW,237,0.0,5.0,98,0.04,,-RA,0.64,VWS V14.01,2013-04-11 03:49:00,
2013-04-10 23:54:00,59.8,59.2,29.83,WSW,237,1.0,5.0,98,0.05,,-RA,0.65,VWS V14.01,2013-04-11 03:54:00,
2013-04-10 23:59:00,59.8,59.2,29.83,WSW,243,0.0,5.0,98,0.05,,-RA,0.65,VWS V14.01,2013-04-11 03:59:00,